Flight Track Log - Related Links

Times and Time Zones

All times are in EDT time to prevent confusion due to time zone crossing. See the EJA102 flight status page for this flight to view local times or setup timezone preferences in your user account.

Time Position Orientation Groundspeed Altitude Reporting Facility
EDT Latitude Longitude Course Direction KTS MPH feet Rate Location/Type
Sun 06:20:58 PM 40.3900 -80.2942 180° South 246 283 6,400  Level Cleveland Center
Sun 06:21:58 PM 40.3192 -80.2917 178° South 265 305 9,000 2,600 Climbing Cleveland Center
Sun 06:22:58 PM 40.2439 -80.2894 179° South 276 318 11,600 2,400 Climbing Cleveland Center
Sun 06:23:58 PM 40.1647 -80.2897 180° South 281 323 13,800 2,100 Climbing Cleveland Center
Sun 06:24:58 PM 40.0856 -80.2872 179° South 281 323 15,800 1,850 Climbing Cleveland Center
Sun 06:25:00 PM 39.8047 -80.2500 180° South  Level FlightAware Approximate
Sun 06:25:58 PM 40.0022 -80.2822 177° South 286 329 17,500  Level Cleveland Center
Sun 06:26:00 PM 39.7017 -80.2500 180° South  Level FlightAware Approximate
Sun 06:26:58 PM 39.9167 -80.2828 180° South 304 350 18,900  Level Cleveland Center
Sun 06:27:58 PM 39.8208 -80.2775 178° South 318 366 20,400 1,500 Climbing Cleveland Center
Sun 06:28:58 PM 39.7250 -80.2781 180° South 333 383 21,900 1,400 Climbing Cleveland Center
Sun 06:29:58 PM 39.6247 -80.2758 179° South 347 399 23,200 1,150 Climbing Cleveland Center
Sun 06:30:58 PM 39.5228 -80.2708 178° South 364 419 24,200 1,000 Climbing Cleveland Center
Sun 06:31:58 PM 39.4142 -80.2686 179° South 375 432 25,200 740 Climbing Cleveland Center
Sun 06:33:24 PM 39.2708 -80.2675 180° South 394 453 26,000 612 Climbing Washington Center
Sun 06:34:25 PM 39.1614 -80.2925 190° South 399 459 26,700 836 Climbing Washington Center
Sun 06:35:26 PM 39.0542 -80.3150 189° South 399 459 27,700 984 Climbing Washington Center
Sun 06:36:27 PM 38.9469 -80.3347 188° South 394 453 28,700 655 Climbing Washington Center
Sun 06:37:25 PM 38.8419 -80.3572 189° South 389 448 29,000 151 Climbing Washington Center
Sun 06:38:26 PM 38.7303 -80.3875 192° South 400 460 29,000  Level Washington Center
Sun 06:39:26 PM 38.6125 -80.4117 189° South 418 481 29,000 353 Level Washington Center
Sun 06:40:25 PM 38.5008 -80.4361 190° South 418 481 29,700 958 Climbing Washington Center
Sun 06:41:25 PM 38.3747 -80.4597 188° South 418 481 30,900 1,091 Climbing Washington Center
Sun 06:42:26 PM 38.2675 -80.4819 189° South 413 475 31,900 934 Climbing Washington Center
Sun 06:43:27 PM 38.1581 -80.5036 189° South 408 470 32,800 958 Climbing Washington Center
Sun 06:44:25 PM 38.0614 -80.5236 189° South 398 458 33,800 605 Climbing Washington Center
Sun 06:45:26 PM 37.9542 -80.5456 189° South 393 452 34,000 66 Climbing Washington Center
Sun 06:47:28 PM 37.7092 -80.5928 189° South 427 491 34,000  Level Atlanta Center
Sun 06:48:28 PM 37.5931 -80.6161 189° South 427 491 34,000  Level Atlanta Center
Sun 06:49:28 PM 37.4875 -80.6392 190° South 427 491 34,000  Level Atlanta Center
Sun 06:50:28 PM 37.3714 -80.6597 188° South 427 491 34,000  Level Atlanta Center
Sun 06:51:28 PM 37.2553 -80.6831 189° South 427 491 34,000  Level Atlanta Center
Sun 06:52:28 PM 37.1225 -80.7069 188° South 427 491 34,000  Level Atlanta Center
Sun 06:53:28 PM 37.0042 -80.7250 187° South 427 491 34,000  Level Atlanta Center
Sun 06:54:28 PM 36.8836 -80.7403 186° South 427 491 34,000  Level Atlanta Center
Sun 06:55:28 PM 36.7733 -80.7475 183° South 440 506 34,000  Level Atlanta Center
Sun 06:56:28 PM 36.6422 -80.7608 185° South 440 506 34,000  Level Atlanta Center
Sun 06:57:28 PM 36.5236 -80.7733 185° South 440 506 34,000  Level Atlanta Center
Sun 06:58:28 PM 36.4011 -80.7861 185° South 440 506 34,000  Level Atlanta Center
Sun 06:59:28 PM 36.2825 -80.7986 185° South 440 506 34,000  Level Atlanta Center
Sun 07:00:28 PM 36.1661 -80.8136 186° South 440 506 34,000  Level Atlanta Center
Sun 07:01:28 PM 36.0600 -80.8231 184° South 440 506 34,000  Level Atlanta Center
Sun 07:02:28 PM 35.9392 -80.8353 185° South 440 506 34,000  Level Atlanta Center
Sun 07:03:28 PM 35.8186 -80.8478 185° South 440 506 34,000  Level Atlanta Center
Sun 07:04:28 PM 35.6981 -80.8603 185° South 440 506 34,000  Level Atlanta Center
Sun 07:05:28 PM 35.5628 -80.8731 184° South 445 512 34,000  Level Atlanta Center
Sun 07:06:28 PM 35.4378 -80.8881 186° South 445 512 34,000 -450 Level Atlanta Center
Sun 07:07:28 PM 35.3153 -80.9056 187° South 445 512 33,100 -1,200 Descending Atlanta Center
Sun 07:08:28 PM 35.1944 -80.9178 185° South 439 505 31,600 -1,550 Descending Atlanta Center
Sun 07:09:28 PM 35.0717 -80.9325 186° South 444 511 30,000 -1,546 Descending Atlanta Center
Sun 07:11:42 PM 34.7958 -80.9561 184° South 440 506 26,600 -1,237 Descending Jacksonville Center
Sun 07:12:42 PM 34.6731 -80.9739 187° South 456 525 26,000 -300 Descending Jacksonville Center
Sun 07:13:42 PM 34.5419 -80.9894 186° South 466 536 26,000  Level Jacksonville Center
Sun 07:14:42 PM 34.4147 -81.0000 184° South 461 531 26,000  Level Jacksonville Center
Sun 07:15:42 PM 34.2919 -81.0150 186° South 461 531 26,000  Level Jacksonville Center
Sun 07:16:42 PM 34.1939 -81.0247 185° South 456 525 26,000  Level Jacksonville Center
Sun 07:17:42 PM 34.0522 -81.0353 184° South 461 531 26,000 -100 Level Jacksonville Center
Sun 07:18:42 PM 33.9250 -81.0456 184° South 461 531 25,800 -600 Descending Jacksonville Center
Sun 07:19:42 PM 33.7981 -81.0581 185° South 461 531 24,800 -1,200 Descending Jacksonville Center
Sun 07:20:42 PM 33.6606 -81.0761 186° South 461 531 23,400 -1,400 Descending Jacksonville Center
Sun 07:21:42 PM 33.5375 -81.0836 183° South 461 531 22,000 -1,400 Descending Jacksonville Center
Sun 07:22:42 PM 33.4144 -81.0936 184° South 455 524 20,600 -1,350 Descending Jacksonville Center
Sun 07:23:42 PM 33.2978 -81.1033 184° South 444 511 19,300 -1,350 Descending Jacksonville Center
Sun 07:24:42 PM 33.1811 -81.1131 184° South 438 504 17,900 -1,200 Descending Jacksonville Center
Sun 07:25:42 PM 33.0683 -81.1203 183° South 426 490 16,900 -1,400 Descending Jacksonville Center
Sun 07:26:42 PM 32.9656 -81.0753 160° South 392 451 15,100 -1,800 Descending Jacksonville Center
Sun 07:27:42 PM 32.8731 -81.0253 156° South 398 458 13,300 -1,700 Descending Jacksonville Center
Sun 07:28:42 PM 32.7742 -80.9753 157° South 398 458 11,700 -1,750 Descending Jacksonville Center
Sun 07:29:42 PM 32.6772 -80.9281 158° South 364 419 9,800 -1,850 Descending Jacksonville Center
Sun 07:30:42 PM 32.6017 -80.8903 157° South 296 341 8,000 -1,700 Descending Jacksonville Center
Sun 07:31:42 PM 32.5367 -80.8694 165° South 279 321 6,400 -2,000 Descending Jacksonville Center
Sun 07:32:42 PM 32.4547 -80.8467 167° South 274 315 4,000 -1,250 Descending Jacksonville Center
Sun 07:33:42 PM 32.3878 -80.8311 169° South 274 315 3,900 -850 Descending Jacksonville Center
Sun 07:34:42 PM 32.3081 -80.8106 168° South 273 314 2,300 -950 Descending Jacksonville Center
Sun 07:35:42 PM 32.2453 -80.7972 170° South 250 288 2,000 -150 Descending Jacksonville Center
Sun 07:36:42 PM 32.2014 -80.7886 171° South 179 206 2,000 -500 Level Jacksonville Center
Sun 07:37:42 PM 32.1819 -80.7497 121° Southeast 136 157 1,000 -800 Descending Jacksonville Center
Sun 07:38:42 PM 32.2019 -80.7125 58° Northeast 115 132 400 -350 Descending Jacksonville Center
Sun 07:39:42 PM 32.2078 -80.6753 79° East 107 123 300 -100 Descending Jacksonville Center
Sun 07:41:00 PM 32.2167 -80.6833 North  Level FlightAware Approximate
Sun 07:48:00 PM 32.2244 -80.6975 North  Level Estimated
Sun 07:49:00 PM 32.2244 -80.6975 North  Level Estimated
Sun 07:50:00 PM 32.2244 -80.6975 North  Level Estimated
Sun 07:51:00 PM 32.2244 -80.6975 North  Level Estimated
Sun 07:52:00 PM 32.2244 -80.6975 North  Level Estimated
Sun 07:53:00 PM 32.2244 -80.6975 North  Level Estimated
Sun 07:54:00 PM 32.2244 -80.6975 North  Level Estimated
Sun 07:55:00 PM 32.2244 -80.6975 North  Level Estimated

Login

Don't have an account? Register now (free) for customized features, flight alerts, and more!